Time;durP1;ratioP1;P1;durP2;ratioP2;P2;SDS_P1;SDS_P2;PMS_P1;PMS_P2;Temp;Humidity;BMP_temperature;BMP_pressure;BME280_temperature;BME280_humidity;BME280_pressure;Samples;Min_cycle;Max_cycle;Signal;HPM_P1;HPM_P2
2022/02/27 00:01:19;;;;;;;10.70;6.03;;;;;;;2.73;56.15;101497.66;5113393;28;20456;-71
2022/02/27 00:03:48;;;;;;;13.07;5.40;;;;;;;2.70;56.29;101487.13;5112311;28;20043;-71
2022/02/27 00:06:16;;;;;;;9.55;5.35;;;;;;;2.66;56.16;101483.66;5113818;28;20131;-71
2022/02/27 00:08:45;;;;;;;10.80;5.93;;;;;;;2.60;56.74;101491.59;5113159;28;20449;-71
2022/02/27 00:11:14;;;;;;;11.90;5.50;;;;;;;2.61;56.44;101477.56;5113357;28;20122;-71
2022/02/27 00:13:43;;;;;;;10.73;6.00;;;;;;;2.58;56.94;101488.97;5116388;28;20096;-71
2022/02/27 00:16:15;;;;;;;14.05;6.03;;;;;;;2.50;57.32;101479.38;5117381;28;20127;-71
2022/02/27 00:18:44;;;;;;;10.45;5.65;;;;;;;2.45;57.53;101481.19;5117184;28;20043;-72
2022/02/27 00:21:13;;;;;;;12.00;6.22;;;;;;;2.37;57.54;101470.72;5117284;28;20035;-71
2022/02/27 00:23:42;;;;;;;11.65;5.47;;;;;;;2.42;57.69;101475.97;5115858;28;20055;-76
2022/02/27 00:26:10;;;;;;;13.93;5.78;;;;;;;2.40;58.05;101468.03;5117214;28;20477;-72
2022/02/27 00:28:41;;;;;;;13.02;5.78;;;;;;;2.37;58.29;101472.47;5117077;28;20096;-71
2022/02/27 00:31:10;;;;;;;13.07;6.22;;;;;;;2.32;58.32;101466.34;5117375;28;20075;-71
2022/02/27 00:33:39;;;;;;;12.10;5.60;;;;;;;2.30;58.52;101466.34;5116990;28;20047;-70
2022/02/27 00:36:07;;;;;;;12.15;5.90;;;;;;;2.31;58.71;101473.38;5116862;28;20078;-71
2022/02/27 00:38:35;;;;;;;13.95;5.82;;;;;;;2.22;59.09;101474.34;5117032;28;20453;-70
2022/02/27 00:41:03;;;;;;;12.00;5.32;;;;;;;2.25;59.00;101479.56;5116548;28;20039;-70
2022/02/27 00:43:31;;;;;;;13.13;5.90;;;;;;;2.30;59.29;101474.25;5116781;28;20039;-71
2022/02/27 00:46:04;;;;;;;11.85;6.18;;;;;;;2.20;59.85;101465.56;5116478;28;20040;-71
2022/02/27 00:48:32;;;;;;;15.33;6.47;;;;;;;2.17;59.91;101470.84;5116883;28;20040;-71
2022/02/27 00:51:01;;;;;;;13.55;6.72;;;;;;;2.16;59.88;101471.72;5116311;28;20280;-70
2022/02/27 00:53:29;;;;;;;11.45;6.53;;;;;;;2.19;60.34;101469.06;5116655;28;20043;-70
2022/02/27 00:55:57;;;;;;;13.73;6.55;;;;;;;2.14;60.49;101470.88;5116289;28;20374;-70
2022/02/27 00:58:26;;;;;;;12.10;6.75;;;;;;;2.24;60.37;101464.66;5116333;28;20459;-70
2022/02/27 01:00:54;;;;;;;13.23;6.53;;;;;;;2.24;60.40;101456.75;5114851;28;20058;-69
2022/02/27 01:03:24;;;;;;;13.93;6.60;;;;;;;2.26;60.39;101469.91;5116169;28;20506;-69
2022/02/27 01:05:52;;;;;;;15.45;6.80;;;;;;;2.14;60.83;101460.34;5114802;28;20048;-69
2022/02/27 01:08:21;;;;;;;19.23;8.65;;;;;;;2.20;60.74;101459.41;5116301;28;20484;-69
2022/02/27 01:10:49;;;;;;;21.67;9.02;;;;;;;2.17;61.03;101459.44;5115928;28;20044;-70
2022/02/27 01:13:18;;;;;;;28.73;10.07;;;;;;;2.11;61.20;101455.06;5115998;28;20054;-69
2022/02/27 01:15:46;;;;;;;28.90;11.02;;;;;;;2.11;61.84;101455.06;5115869;28;20039;-76
2022/02/27 01:18:14;;;;;;;23.90;9.30;;;;;;;2.13;61.81;101458.59;5116301;28;20105;-69
2022/02/27 01:20:44;;;;;;;17.27;8.27;;;;;;;2.09;61.76;101451.59;5116183;28;20071;-70
2022/02/27 01:23:12;;;;;;;22.17;9.80;;;;;;;2.00;62.52;101456.91;5115228;28;20039;-70
2022/02/27 01:25:41;;;;;;;20.30;8.20;;;;;;;2.03;62.45;101462.19;5115576;28;20046;-70
2022/02/27 01:28:09;;;;;;;17.88;7.88;;;;;;;2.12;62.09;101459.44;5115739;28;20043;-69
2022/02/27 01:30:39;;;;;;;21.90;8.68;;;;;;;1.99;62.60;101461.28;5115919;28;20040;-69
2022/02/27 01:33:12;;;;;;;15.23;7.68;;;;;;;1.96;62.96;101458.69;5115581;28;20039;-69
2022/02/27 01:35:42;;;;;;;19.33;7.93;;;;;;;2.00;62.70;101456.91;5115906;28;20043;-69
2022/02/27 01:38:12;;;;;;;16.92;7.25;;;;;;;2.02;63.26;101452.50;5115609;28;20391;-70
2022/02/27 01:40:40;;;;;;;17.13;6.80;;;;;;;2.09;62.78;101451.59;5115845;28;20055;-70
2022/02/27 01:43:10;;;;;;;15.88;7.57;;;;;;;2.10;62.85;101437.53;5115136;28;20044;-71
2022/02/27 01:45:38;;;;;;;16.98;7.35;;;;;;;2.10;62.77;101439.31;5115732;28;20071;-70
2022/02/27 01:48:07;;;;;;;19.48;8.38;;;;;;;2.15;62.69;101445.44;5115330;28;20097;-71
2022/02/27 01:50:36;;;;;;;14.20;7.20;;;;;;;2.06;63.24;101450.75;5115512;28;20081;-71
2022/02/27 01:53:05;;;;;;;15.32;7.40;;;;;;;2.05;62.93;101451.63;5113886;28;20143;-70
2022/02/27 01:55:34;;;;;;;15.15;7.60;;;;;;;2.12;63.11;101445.41;5115509;28;20048;-71
2022/02/27 01:58:03;;;;;;;14.63;6.90;;;;;;;2.02;63.46;101444.59;5115134;28;20048;-70
2022/02/27 02:00:31;;;;;;;14.93;7.35;;;;;;;2.07;63.55;101445.47;5115332;28;20541;-69
2022/02/27 02:03:00;;;;;;;14.68;7.68;;;;;;;2.15;63.11;101446.28;5114986;28;20123;-71
2022/02/27 02:05:28;;;;;;;18.35;7.60;;;;;;;2.11;63.24;101446.31;5114997;28;20047;-70
2022/02/27 02:07:57;;;;;;;16.90;8.13;;;;;;;2.03;63.63;101448.09;5114940;28;20469;-69
2022/02/27 02:10:25;;;;;;;15.02;7.45;;;;;;;1.99;63.64;101449.91;5115254;28;20461;-69
2022/02/27 02:12:55;;;;;;;17.33;7.90;;;;;;;2.03;64.00;101445.47;5114665;28;20493;-69
2022/02/27 02:15:23;;;;;;;17.13;8.02;;;;;;;2.10;63.58;101442.81;5115157;28;20426;-69
2022/02/27 02:17:52;;;;;;;14.38;7.53;;;;;;;2.08;63.70;101438.44;5114298;28;20170;-70
2022/02/27 02:20:22;;;;;;;14.98;7.80;;;;;;;2.04;64.21;101440.22;5114979;28;20048;-69
2022/02/27 02:22:50;;;;;;;17.40;7.85;;;;;;;2.03;63.85;101446.38;5114704;28;20043;-78
2022/02/27 02:25:18;;;;;;;16.33;8.18;;;;;;;1.98;64.46;101448.16;5114862;28;20050;-69
2022/02/27 02:27:47;;;;;;;20.23;8.85;;;;;;;2.00;64.12;101442.00;5113433;28;20105;-69
2022/02/27 02:30:16;;;;;;;14.02;6.85;;;;;;;1.89;64.65;101441.19;5114728;28;20540;-69
2022/02/27 02:32:50;;;;;;;15.20;7.85;;;;;;;1.98;64.64;101438.50;5114697;28;20105;-68
2022/02/27 02:35:19;;;;;;;14.35;7.78;;;;;;;1.90;64.90;101435.03;5114550;28;20119;-69
2022/02/27 02:37:49;;;;;;;19.50;8.68;;;;;;;1.82;65.04;101430.69;5114783;28;20112;-69
2022/02/27 02:40:18;;;;;;;19.05;8.27;;;;;;;1.95;64.52;101443.78;5114427;28;20088;-69
2022/02/27 02:42:47;;;;;;;16.88;7.78;;;;;;;1.93;64.69;101434.13;5113397;28;20051;-69
2022/02/27 02:45:16;;;;;;;17.88;8.70;;;;;;;1.83;64.93;101438.56;5114198;28;20043;-71
2022/02/27 02:47:47;;;;;;;18.08;8.18;;;;;;;1.93;65.06;101434.13;5114486;28;20094;-69
2022/02/27 02:50:18;;;;;;;17.15;8.57;;;;;;;1.85;65.27;101435.97;5114133;28;20572;-72
2022/02/27 02:52:46;;;;;;;17.67;8.43;;;;;;;1.83;65.15;101438.56;5114542;28;20118;-71
2022/02/27 02:55:20;;;;;;;16.98;8.18;;;;;;;1.86;65.23;101435.06;5113613;28;20043;-68
2022/02/27 02:57:49;;;;;;;18.90;9.00;;;;;;;1.90;65.23;101436.78;5116555;28;20061;-69
2022/02/27 03:00:17;;;;;;;17.83;8.27;;;;;;;1.86;64.94;101437.72;5113748;28;20126;-69
2022/02/27 03:02:46;;;;;;;14.00;7.30;;;;;;;1.89;65.40;101435.03;5113226;28;20123;-70
2022/02/27 03:05:14;;;;;;;18.13;8.15;;;;;;;1.89;65.07;101433.28;5113777;28;20069;-69
2022/02/27 03:07:42;;;;;;;18.23;8.23;;;;;;;1.86;65.36;101440.34;5114078;28;20043;-69
2022/02/27 03:10:11;;;;;;;19.92;8.07;;;;;;;1.84;64.76;101426.31;5113362;28;20438;-69
2022/02/27 03:12:41;;;;;;;17.92;8.18;;;;;;;1.86;65.02;101433.31;5113132;28;20117;-72
2022/02/27 03:15:11;;;;;;;16.45;8.13;;;;;;;1.79;65.47;101431.59;5113754;28;20047;-71
2022/02/27 03:17:40;;;;;;;16.83;7.28;;;;;;;1.87;64.90;101428.94;5113881;28;20408;-69
2022/02/27 03:20:09;;;;;;;15.80;7.88;;;;;;;1.84;64.91;101423.69;5113600;28;20039;-69
2022/02/27 03:22:37;;;;;;;16.98;8.13;;;;;;;1.85;64.82;101430.69;5113871;28;20039;-69
2022/02/27 03:25:08;;;;;;;13.55;7.22;;;;;;;1.90;64.91;101432.41;5113589;28;20047;-70
2022/02/27 03:27:36;;;;;;;16.27;8.35;;;;;;;1.79;65.24;101436.84;5113820;28;20370;-68
2022/02/27 03:30:07;;;;;;;15.73;8.10;;;;;;;1.75;64.96;101439.53;5112176;28;20475;-70
2022/02/27 03:32:35;;;;;;;12.00;7.15;;;;;;;1.81;65.30;101436.84;5112445;28;20058;-70
2022/02/27 03:35:04;;;;;;;16.52;7.95;;;;;;;1.75;65.09;101443.03;5113051;28;20039;-71
2022/02/27 03:37:33;;;;;;;18.60;7.63;;;;;;;1.71;65.49;101444.78;5113640;28;20040;-70
2022/02/27 03:40:08;;;;;;;13.68;7.55;;;;;;;1.81;64.67;101450.88;5113400;28;20164;-68
2022/02/27 03:42:36;;;;;;;17.88;8.32;;;;;;;1.81;64.92;101442.97;5113002;28;20039;-69
2022/02/27 03:45:07;;;;;;;14.43;7.40;;;;;;;1.72;65.31;101441.25;5113287;28;20051;-70
2022/02/27 03:47:36;;;;;;;16.63;7.50;;;;;;;1.76;65.18;101446.53;5112873;28;20081;-69
2022/02/27 03:50:05;;;;;;;16.88;7.20;;;;;;;1.69;65.78;101451.81;5113364;28;20042;-69
2022/02/27 03:52:34;;;;;;;15.10;7.70;;;;;;;1.75;65.33;101450.03;5113336;28;20039;-69
2022/02/27 03:55:04;;;;;;;15.20;7.57;;;;;;;1.76;65.08;101449.16;5113257;28;20085;-69
2022/02/27 03:57:33;;;;;;;13.25;7.05;;;;;;;1.76;65.03;101452.66;5113498;28;20042;-69
2022/02/27 04:00:02;;;;;;;14.93;7.82;;;;;;;1.72;65.31;101466.69;5113323;28;20046;-69
2022/02/27 04:02:34;;;;;;;15.80;7.88;;;;;;;1.71;65.06;101464.94;5113559;28;20088;-69
2022/02/27 04:05:04;;;;;;;17.27;8.38;;;;;;;1.81;65.01;101463.16;5113175;28;20050;-68
2022/02/27 04:07:32;;;;;;;16.27;7.50;;;;;;;1.73;65.13;101458.78;5112326;28;20494;-70
2022/02/27 04:10:01;;;;;;;13.55;7.63;;;;;;;1.69;65.55;101457.06;5113144;28;20503;-70
2022/02/27 04:12:30;;;;;;;15.60;7.63;;;;;;;1.68;65.41;101460.59;5113186;28;20059;-70
2022/02/27 04:14:58;;;;;;;14.65;7.90;;;;;;;1.67;65.82;101457.97;5112803;28;20047;-70
2022/02/27 04:17:26;;;;;;;11.95;7.20;;;;;;;1.53;66.38;101460.63;5113361;28;20082;-68
2022/02/27 04:19:56;;;;;;;14.10;7.82;;;;;;;1.43;67.04;101465.06;5113093;28;20109;-69
2022/02/27 04:22:24;;;;;;;15.93;8.00;;;;;;;1.40;67.08;101458.94;5113548;28;20089;-69
2022/02/27 04:24:52;;;;;;;15.38;7.57;;;;;;;1.43;67.11;101458.94;5113387;28;20044;-70
2022/02/27 04:27:23;;;;;;;16.67;7.95;;;;;;;1.39;67.28;101457.19;5113123;28;20054;-69
2022/02/27 04:29:52;;;;;;;16.10;8.10;;;;;;;1.33;67.42;101468.59;5113309;28;20047;-68
2022/02/27 04:32:20;;;;;;;17.23;8.00;;;;;;;1.41;66.72;101463.31;5113017;28;20492;-69
2022/02/27 04:34:48;;;;;;;16.52;8.25;;;;;;;1.42;66.85;101475.59;5113038;28;20047;-69
2022/02/27 04:37:19;;;;;;;15.45;8.07;;;;;;;1.31;67.40;101464.22;5112967;28;20035;-69
2022/02/27 04:39:47;;;;;;;18.65;8.60;;;;;;;1.39;67.13;101458.06;5113411;28;20046;-69
2022/02/27 04:42:16;;;;;;;15.48;7.90;;;;;;;1.38;66.76;101460.72;5112985;28;20388;-69
2022/02/27 04:44:44;;;;;;;13.27;7.22;;;;;;;1.51;66.27;101467.66;5113415;28;20042;-69
2022/02/27 04:47:12;;;;;;;13.30;7.47;;;;;;;1.46;66.09;101479.97;5112922;28;20449;-69
2022/02/27 04:49:41;;;;;;;14.10;7.57;;;;;;;1.42;66.03;101483.47;5113108;28;20040;-69
2022/02/27 04:52:09;;;;;;;18.55;7.72;;;;;;;1.44;66.18;101484.34;5112762;28;20039;-69
2022/02/27 04:54:39;;;;;;;14.63;7.15;;;;;;;1.46;65.84;101484.34;5113111;28;20040;-69
2022/02/27 04:57:07;;;;;;;14.98;7.13;;;;;;;1.38;66.22;101485.25;5112909;28;20043;-69
2022/02/27 04:59:35;;;;;;;15.93;7.32;;;;;;;1.49;66.08;101492.22;5116234;28;20392;-69
2022/02/27 05:02:04;;;;;;;15.20;7.68;;;;;;;1.40;66.09;101490.50;5116191;28;20070;-69
2022/02/27 05:04:34;;;;;;;14.18;8.10;;;;;;;1.38;66.46;101497.53;5115899;28;20096;-69
2022/02/27 05:07:03;;;;;;;14.77;7.90;;;;;;;1.37;66.52;101495.78;5116676;28;20052;-69
2022/02/27 05:09:32;;;;;;;12.13;6.90;;;;;;;1.33;66.86;101501.91;5115339;28;20127;-69
2022/02/27 05:12:01;;;;;;;14.15;7.88;;;;;;;1.33;66.37;101510.66;5116421;28;20039;-69
2022/02/27 05:14:29;;;;;;;17.73;8.48;;;;;;;1.34;66.70;101503.66;5116173;28;20400;-69
2022/02/27 05:16:58;;;;;;;15.07;7.28;;;;;;;1.35;66.76;101511.56;5114751;28;20138;-69
2022/02/27 05:19:26;;;;;;;17.38;8.15;;;;;;;1.28;66.85;101516.81;5116443;28;20075;-69
2022/02/27 05:21:55;;;;;;;15.43;7.22;;;;;;;1.33;66.55;101515.03;5116833;28;20395;-69
2022/02/27 05:24:23;;;;;;;15.52;7.57;;;;;;;1.28;66.59;101517.69;5116061;28;20043;-68
2022/02/27 05:26:51;;;;;;;17.63;7.85;;;;;;;1.34;66.49;101524.69;5116319;28;20043;-69
2022/02/27 05:29:21;;;;;;;13.32;7.60;;;;;;;1.33;66.46;101530.81;5116097;28;20044;-69
2022/02/27 05:31:49;;;;;;;17.10;8.10;;;;;;;1.30;66.24;101530.84;5116455;28;20396;-69
2022/02/27 05:34:18;;;;;;;16.40;7.50;;;;;;;1.25;66.69;101535.22;5115834;28;20066;-69
2022/02/27 05:36:47;;;;;;;14.85;6.95;;;;;;;1.34;66.23;101541.31;5116008;28;20040;-69
2022/02/27 05:39:15;;;;;;;14.20;7.38;;;;;;;1.38;65.54;101542.22;5115424;28;20127;-69
2022/02/27 05:41:43;;;;;;;14.15;6.82;;;;;;;1.41;65.37;101548.31;5115911;28;20050;-68
2022/02/27 05:44:12;;;;;;;12.73;6.65;;;;;;;1.47;65.01;101554.47;5115865;28;20388;-67
2022/02/27 05:46:42;;;;;;;14.48;7.43;;;;;;;1.51;64.85;101546.56;5114843;28;20060;-69
2022/02/27 05:49:11;;;;;;;12.82;6.63;;;;;;;1.49;64.32;101545.69;5115556;28;20039;-70
2022/02/27 05:51:39;;;;;;;13.55;6.80;;;;;;;1.51;64.45;101546.56;5115686;28;20456;-68
2022/02/27 05:54:07;;;;;;;18.80;7.95;;;;;;;1.62;64.07;101554.41;5115456;28;20050;-69
2022/02/27 05:56:35;;;;;;;16.02;7.18;;;;;;;1.77;63.17;101556.13;5115659;28;20063;-69
2022/02/27 05:59:03;;;;;;;16.80;7.75;;;;;;;1.72;63.45;101564.91;5115587;28;20080;-69
2022/02/27 06:01:32;;;;;;;12.30;6.15;;;;;;;1.76;63.18;101567.53;5115559;28;20123;-69
2022/02/27 06:04:02;;;;;;;16.83;7.40;;;;;;;1.88;62.71;101563.09;5115520;28;20498;-69
2022/02/27 06:06:30;;;;;;;14.32;7.03;;;;;;;1.97;62.43;101564.81;5115189;28;20039;-69
2022/02/27 06:08:58;;;;;;;14.35;6.95;;;;;;;2.06;61.49;101575.31;5115371;28;20040;-69
2022/02/27 06:11:26;;;;;;;12.68;7.05;;;;;;;2.05;61.57;101576.19;5113279;28;20048;-69
2022/02/27 06:13:57;;;;;;;14.23;6.45;;;;;;;2.09;61.43;101583.19;5115001;28;20052;-69
2022/02/27 06:16:25;;;;;;;13.77;6.22;;;;;;;2.09;60.98;101591.09;5114755;28;20048;-68
2022/02/27 06:18:54;;;;;;;14.45;7.13;;;;;;;2.18;60.97;101584.91;5114938;28;20047;-70
2022/02/27 06:21:24;;;;;;;16.00;6.80;;;;;;;2.27;60.48;101583.13;5114919;28;20044;-68
2022/02/27 06:23:52;;;;;;;15.13;6.40;;;;;;;2.23;60.86;101576.13;5115187;28;20054;-70
2022/02/27 06:26:20;;;;;;;11.45;6.05;;;;;;;2.28;60.73;101590.13;5114511;28;20048;-68
2022/02/27 06:28:49;;;;;;;13.00;6.35;;;;;;;2.36;59.87;101591.84;5114961;28;20477;-69
2022/02/27 06:31:17;;;;;;;16.17;6.05;;;;;;;2.20;60.27;101589.28;5114639;28;20500;-70
2022/02/27 06:33:46;;;;;;;13.25;6.20;;;;;;;2.41;60.32;101587.41;5114642;28;20067;-69
2022/02/27 06:36:14;;;;;;;13.57;5.75;;;;;;;2.40;59.90;101583.91;5114336;28;20071;-68
2022/02/27 06:38:44;;;;;;;12.57;6.20;;;;;;;2.32;60.19;101595.38;5114511;28;20047;-68
2022/02/27 06:41:15;;;;;;;14.40;6.53;;;;;;;2.38;59.73;101590.06;5114519;28;20074;-70
2022/02/27 06:43:44;;;;;;;16.02;6.30;;;;;;;2.36;59.82;101591.84;5114866;28;20052;-69
2022/02/27 06:46:13;;;;;;;14.05;6.43;;;;;;;2.47;59.68;101603.19;5114476;28;20039;-70
2022/02/27 06:48:41;;;;;;;13.65;6.68;;;;;;;2.53;59.42;101590.00;5114656;28;20043;-68
2022/02/27 06:51:10;;;;;;;11.63;6.20;;;;;;;2.60;59.31;101596.97;5114334;28;20104;-70
2022/02/27 06:53:40;;;;;;;11.70;6.05;;;;;;;2.54;59.19;101597.03;5114646;28;20043;-68
2022/02/27 06:56:11;;;;;;;11.93;6.15;;;;;;;2.54;59.06;101612.81;5114349;28;20039;-70
2022/02/27 06:58:39;;;;;;;13.48;5.90;;;;;;;2.66;58.97;101603.97;5114466;28;20070;-69
2022/02/27 07:01:09;;;;;;;12.90;5.80;;;;;;;2.68;58.55;101604.81;5113115;28;20048;-69
2022/02/27 07:03:37;;;;;;;14.05;6.72;;;;;;;2.77;58.22;101603.00;5114054;28;20035;-69
2022/02/27 07:06:08;;;;;;;12.80;5.88;;;;;;;2.76;57.99;101613.56;5114349;28;20036;-69
2022/02/27 07:08:36;;;;;;;12.90;6.20;;;;;;;2.80;57.80;101607.41;5114172;28;20123;-69
2022/02/27 07:11:05;;;;;;;15.45;5.75;;;;;;;2.76;58.27;101613.56;5114166;28;20434;-69
2022/02/27 07:13:35;;;;;;;13.63;6.50;;;;;;;2.84;58.17;101617.91;5113600;28;20051;-69
2022/02/27 07:16:03;;;;;;;10.02;5.03;;;;;;;2.96;57.46;101618.69;5113900;28;20047;-69
2022/02/27 07:18:34;;;;;;;12.40;5.68;;;;;;;2.98;57.11;101614.28;5114218;28;20052;-69
2022/02/27 07:21:02;;;;;;;11.60;5.95;;;;;;;2.93;57.63;101616.09;5113711;28;20115;-69
2022/02/27 07:23:31;;;;;;;12.98;5.85;;;;;;;2.87;57.63;101615.22;5113291;28;20051;-69
2022/02/27 07:25:59;;;;;;;10.55;5.72;;;;;;;3.05;56.81;101622.13;5113985;28;20039;-69
2022/02/27 07:28:27;;;;;;;15.18;6.35;;;;;;;3.14;57.12;101618.56;5113774;28;20118;-69
2022/02/27 07:30:56;;;;;;;11.02;6.00;;;;;;;3.15;57.07;101613.28;5113696;28;20043;-70
2022/02/27 07:33:25;;;;;;;9.98;5.70;;;;;;;3.25;56.09;101623.75;5113624;28;20089;-70
2022/02/27 07:35:54;;;;;;;9.52;5.00;;;;;;;3.27;56.21;101619.31;5112542;28;20052;-69
2022/02/27 07:38:22;;;;;;;12.52;5.13;;;;;;;3.37;55.94;101621.88;5112241;28;20048;-70
2022/02/27 07:40:51;;;;;;;12.43;5.63;;;;;;;3.43;55.04;101629.72;5113507;28;20508;-70
2022/02/27 07:43:20;;;;;;;11.13;5.32;;;;;;;3.53;54.76;101625.25;5113521;28;20040;-70
2022/02/27 07:45:49;;;;;;;11.98;5.70;;;;;;;3.59;54.22;101619.06;5113741;28;20039;-69
2022/02/27 07:48:19;;;;;;;11.35;5.22;;;;;;;3.77;53.55;101623.28;5113425;28;20040;-69
2022/02/27 07:50:48;;;;;;;10.82;4.72;;;;;;;3.84;52.39;101625.81;5113739;28;20044;-69
2022/02/27 07:53:16;;;;;;;9.48;5.10;;;;;;;3.97;52.36;101624.81;5113362;28;20036;-68
2022/02/27 07:55:44;;;;;;;10.07;4.68;;;;;;;3.97;51.75;101631.84;5113632;28;20048;-68
2022/02/27 07:58:13;;;;;;;10.20;4.75;;;;;;;4.10;51.22;101627.28;5113287;28;20050;-70
2022/02/27 08:00:44;;;;;;;11.40;4.45;;;;;;;4.08;51.59;101629.97;5113775;28;20092;-70
2022/02/27 08:03:12;;;;;;;10.77;4.68;;;;;;;4.33;51.22;101625.25;5113301;28;20392;-67
2022/02/27 08:05:42;;;;;;;10.23;4.63;;;;;;;4.43;50.58;101632.16;5113476;28;20162;-68
2022/02/27 08:08:11;;;;;;;8.95;4.00;;;;;;;4.38;50.01;101631.34;5113460;28;20039;-69
2022/02/27 08:10:39;;;;;;;10.98;4.20;;;;;;;4.54;49.55;101627.63;5113420;28;20044;-69
2022/02/27 08:13:08;;;;;;;9.75;4.13;;;;;;;4.55;49.10;101642.59;5113256;28;20054;-69
2022/02/27 08:15:38;;;;;;;11.00;4.43;;;;;;;4.49;49.21;101626.78;5113183;28;20485;-69
2022/02/27 08:18:06;;;;;;;10.38;4.57;;;;;;;4.65;48.97;101627.47;5113458;28;20063;-69
2022/02/27 08:20:37;;;;;;;10.68;4.43;;;;;;;4.70;48.06;101630.91;5113111;28;20126;-69
2022/02/27 08:23:07;;;;;;;10.30;4.30;;;;;;;4.73;47.82;101637.91;5113505;28;20043;-69
2022/02/27 08:25:35;;;;;;;10.77;4.18;;;;;;;4.69;47.89;101625.66;5113087;28;20050;-70
2022/02/27 08:28:04;;;;;;;14.07;4.60;;;;;;;4.72;48.08;101636.16;5112987;28;20040;-70
2022/02/27 08:30:32;;;;;;;9.18;4.18;;;;;;;4.77;47.33;101623.78;5113042;28;20469;-70
2022/02/27 08:33:00;;;;;;;11.52;4.57;;;;;;;4.76;47.13;101640.53;5113902;28;20373;-70
2022/02/27 08:35:28;;;;;;;8.75;4.30;;;;;;;4.87;47.40;101630.69;5116589;28;20054;-70
2022/02/27 08:37:57;;;;;;;7.95;4.05;;;;;;;4.98;46.57;101656.94;5116987;28;20044;-69
2022/02/27 08:40:27;;;;;;;8.15;3.45;;;;;;;4.88;46.75;101627.13;5116852;28;20046;-70
2022/02/27 08:42:56;;;;;;;10.90;3.75;;;;;;;5.02;46.45;101635.75;5116942;28;20542;-70
2022/02/27 08:45:27;;;;;;;9.68;4.68;;;;;;;4.96;46.97;101641.13;5116412;28;20054;-70
2022/02/27 08:47:56;;;;;;;10.82;4.47;;;;;;;5.09;46.26;101637.38;5117021;28;20047;-70
2022/02/27 08:50:24;;;;;;;10.90;4.47;;;;;;;5.09;46.40;101621.50;5116471;28;20509;-68
2022/02/27 08:52:52;;;;;;;8.68;4.15;;;;;;;5.20;46.18;101620.47;5116523;28;20036;-70
2022/02/27 08:55:22;;;;;;;12.90;4.60;;;;;;;5.15;46.06;101620.53;5116660;28;20131;-70
2022/02/27 08:57:52;;;;;;;8.65;3.67;;;;;;;5.20;45.98;101631.91;5116571;28;20151;-68
2022/02/27 09:00:21;;;;;;;10.68;3.80;;;;;;;5.21;45.85;101638.97;5116221;28;20127;-73
2022/02/27 09:02:49;;;;;;;7.72;3.80;;;;;;;5.31;45.63;101632.63;5116396;28;20460;-70
2022/02/27 09:05:18;;;;;;;10.38;3.95;;;;;;;5.30;45.49;101632.63;5116730;28;20067;-69
2022/02/27 09:07:46;;;;;;;8.07;4.28;;;;;;;5.45;44.90;101625.31;5115312;28;20047;-69
2022/02/27 09:10:15;;;;;;;9.75;3.80;;;;;;;5.57;45.42;101631.28;5116450;28;20046;-69
2022/02/27 09:12:45;;;;;;;11.77;4.32;;;;;;;5.59;45.05;101627.72;5115656;28;20040;-70
2022/02/27 09:15:16;;;;;;;8.45;3.50;;;;;;;5.62;44.85;101627.69;5116546;28;20040;-69
2022/02/27 09:17:44;;;;;;;11.45;4.30;;;;;;;5.72;44.92;101625.75;5115798;28;20059;-69
2022/02/27 09:20:13;;;;;;;7.90;3.30;;;;;;;5.80;44.81;101621.19;5115039;28;20097;-69
2022/02/27 09:22:42;;;;;;;12.75;4.32;;;;;;;5.84;44.62;101624.63;5116062;28;20076;-69
2022/02/27 09:25:11;;;;;;;8.60;3.92;;;;;;;5.81;44.52;101632.66;5115844;28;20429;-70
2022/02/27 09:27:59;;;;;;;7.28;3.35;;;;;;;5.72;44.09;101636.34;5116186;28;20067;-69
2022/02/27 09:30:29;;;;;;;8.80;3.42;;;;;;;5.79;44.08;101621.19;5115901;28;20067;-68
2022/02/27 09:32:57;;;;;;;8.05;3.75;;;;;;;5.76;44.01;101627.41;5115963;28;20105;-68
2022/02/27 09:35:28;;;;;;;8.05;3.70;;;;;;;5.85;44.05;101621.09;5115770;28;20138;-70
2022/02/27 09:37:57;;;;;;;8.95;3.63;;;;;;;6.05;44.11;101626.03;5115989;28;20032;-68
2022/02/27 09:40:27;;;;;;;6.80;3.30;;;;;;;6.02;43.78;101627.84;5115404;28;20083;-70
2022/02/27 09:42:56;;;;;;;9.60;3.75;;;;;;;5.95;43.92;101622.69;5116349;28;20420;-68
2022/02/27 09:45:25;;;;;;;9.50;4.03;;;;;;;6.04;43.75;101630.44;5113514;28;20406;-70
2022/02/27 09:47:58;;;;;;;7.20;3.30;;;;;;;6.03;43.25;101618.13;5115448;28;20099;-68
2022/02/27 09:50:29;;;;;;;11.20;3.80;;;;;;;6.17;43.13;101624.00;5115224;28;20039;-67
2022/02/27 09:52:58;;;;;;;6.57;3.22;;;;;;;6.32;43.50;101618.38;5115284;28;20044;-68
2022/02/27 09:55:27;;;;;;;8.70;3.53;;;;;;;6.50;42.49;101613.59;5115034;28;20040;-69
2022/02/27 09:57:55;;;;;;;8.07;3.63;;;;;;;6.49;42.50;101614.53;5115520;28;20046;-69
2022/02/27 10:00:23;;;;;;;7.03;3.40;;;;;;;6.44;42.08;101622.56;5115557;28;20130;-69
2022/02/27 10:03:07;;;;;;;7.93;3.78;;;;;;;6.47;41.88;101634.88;5115252;28;20050;-69
2022/02/27 10:05:38;;;;;;;8.43;3.65;;;;;;;6.43;42.20;101615.50;5115449;28;20492;-69
2022/02/27 10:08:08;;;;;;;6.97;3.03;;;;;;;6.40;42.07;101604.97;5113966;28;20060;-69
2022/02/27 10:10:37;;;;;;;7.65;3.75;;;;;;;6.48;41.92;101612.78;5114743;28;20062;-70
2022/02/27 10:13:07;;;;;;;9.48;3.53;;;;;;;6.57;42.06;101608.16;5115078;27;20402;-69
2022/02/27 10:15:38;;;;;;;7.95;3.15;;;;;;;6.50;41.92;101595.94;5114283;28;20435;-69
2022/02/27 10:18:15;;;;;;;9.98;3.63;;;;;;;6.67;41.53;101600.00;5115382;28;20047;-68
2022/02/27 10:20:44;;;;;;;8.50;3.20;;;;;;;6.65;41.45;101593.81;5114660;28;20035;-69
2022/02/27 10:23:25;;;;;;;8.20;2.88;;;;;;;6.73;41.17;101613.09;5115212;28;20050;-68
2022/02/27 10:25:54;;;;;;;8.75;3.20;;;;;;;6.64;41.15;101606.22;5115234;28;20040;-69
2022/02/27 10:28:22;;;;;;;6.32;2.78;;;;;;;6.66;41.12;101596.47;5115080;28;20044;-68
2022/02/27 10:30:56;;;;;;;6.88;3.22;;;;;;;6.64;40.87;101603.56;5114809;28;20046;-69
2022/02/27 10:33:25;;;;;;;7.10;3.22;;;;;;;6.71;41.04;101588.41;5114667;28;20035;-68
2022/02/27 10:35:54;;;;;;;7.65;2.65;;;;;;;6.93;41.03;101599.38;5114369;28;20093;-68
2022/02/27 10:38:33;;;;;;;7.65;2.97;;;;;;;7.17;40.54;101590.81;5114826;28;20126;-68
2022/02/27 10:41:10;;;;;;;7.97;3.33;;;;;;;7.49;40.14;101589.13;5113881;28;20044;-68
2022/02/27 10:43:42;;;;;;;9.98;3.22;;;;;;;7.72;39.52;101581.41;5114626;28;20130;-69
2022/02/27 10:46:12;;;;;;;8.30;3.17;;;;;;;7.84;38.96;101575.78;5114727;28;20468;-69
2022/02/27 10:48:43;;;;;;;6.53;2.90;;;;;;;7.98;38.92;101565.63;5114385;28;20041;-69
2022/02/27 10:51:14;;;;;;;8.35;2.75;;;;;;;8.00;38.66;101566.44;5114280;28;20084;-69
2022/02/27 10:53:45;;;;;;;8.40;2.65;;;;;;;7.90;38.27;101559.63;5114308;28;20123;-69
2022/02/27 10:56:15;;;;;;;6.18;2.70;;;;;;;7.80;38.47;101558.16;5114069;28;20430;-68
2022/02/27 10:58:45;;;;;;;7.00;3.08;;;;;;;7.85;38.30;101556.25;5113937;28;20454;-68
2022/02/27 11:01:20;;;;;;;5.85;2.83;;;;;;;7.87;38.22;101559.75;5114285;28;20369;-68
2022/02/27 11:03:52;;;;;;;7.50;2.58;;;;;;;7.87;37.65;101578.34;5114193;28;20039;-69
2022/02/27 11:06:21;;;;;;;6.72;2.50;;;;;;;7.87;37.72;101548.25;5114295;28;20469;-69
2022/02/27 11:08:51;;;;;;;6.97;2.90;;;;;;;7.99;37.62;101543.44;5113931;28;20088;-69
2022/02/27 11:11:20;;;;;;;7.18;2.90;;;;;;;7.92;37.45;101552.53;5113904;28;20044;-68
2022/02/27 11:13:51;;;;;;;6.28;3.40;;;;;;;7.86;37.88;101552.69;5113509;28;20039;-68
2022/02/27 11:16:22;;;;;;;7.10;2.83;;;;;;;8.00;37.78;101547.84;5113851;28;20481;-68
2022/02/27 11:18:54;;;;;;;;;;;;;;;8.17;37.67;101546.47;5114395;28;20104;-68
2022/02/27 11:21:23;;;;;;;6.75;2.85;;;;;;;8.10;37.51;101540.47;5114031;28;19919;-68
2022/02/27 11:23:52;;;;;;;6.70;3.05;;;;;;;8.01;37.55;101524.81;5113780;28;20479;-68
2022/02/27 11:26:21;;;;;;;7.70;2.95;;;;;;;8.06;37.56;101537.97;5113925;28;20112;-68
2022/02/27 11:28:50;;;;;;;6.13;2.70;;;;;;;7.98;37.59;101531.06;5113710;28;20067;-69
2022/02/27 11:31:20;;;;;;;6.18;2.75;;;;;;;7.97;37.80;101531.13;5113610;28;20049;-67
2022/02/27 11:33:49;;;;;;;9.93;3.15;;;;;;;8.10;37.81;101524.53;5113596;28;20476;-69
2022/02/27 11:36:22;;;;;;;6.85;2.47;;;;;;;7.98;37.85;101512.47;5113783;28;20051;-68